createdAt,value
2022-12-07T00:00:52.410Z,1012.16
2022-12-07T00:01:52.426Z,1012.13
2022-12-07T00:02:52.357Z,1012.12
2022-12-07T00:03:52.350Z,1012.12
2022-12-07T00:04:52.244Z,1012.09
2022-12-07T00:05:52.189Z,1011.82
2022-12-07T00:06:52.145Z,1011.79
2022-12-07T00:07:52.142Z,1012.14
2022-12-07T00:08:52.060Z,1012.13
2022-12-07T00:09:52.019Z,1012.16
2022-12-07T00:10:51.967Z,1012.08
2022-12-07T00:11:51.920Z,1011.86
2022-12-07T00:12:51.881Z,1011.83
2022-12-07T00:13:51.835Z,1011.81
2022-12-07T00:14:51.810Z,1012.03
2022-12-07T00:15:51.746Z,1011.83
2022-12-07T00:16:51.812Z,1012.17
2022-12-07T00:17:51.660Z,1012.14
2022-12-07T00:18:51.617Z,1012.15
2022-12-07T00:19:51.572Z,1011.94
2022-12-07T00:20:51.529Z,1012.15
2022-12-07T00:21:51.509Z,1012.16
2022-12-07T00:22:51.439Z,1011.83
2022-12-07T00:23:51.407Z,1011.82
2022-12-07T00:24:51.352Z,1012.13
2022-12-07T00:25:51.308Z,1012.20
2022-12-07T00:26:51.362Z,1011.88
2022-12-07T00:27:51.232Z,1011.85
2022-12-07T00:28:51.177Z,1011.85
2022-12-07T00:29:51.132Z,1011.82
2022-12-07T00:30:51.095Z,1011.82
2022-12-07T00:31:51.104Z,1012.18
2022-12-07T00:32:51.003Z,1011.87
2022-12-07T00:33:50.963Z,1011.85
2022-12-07T00:34:50.913Z,1011.87
2022-12-07T00:35:50.868Z,1011.81
2022-12-07T00:36:50.837Z,1012.12
2022-12-07T00:37:50.780Z,1011.92
2022-12-07T00:38:50.737Z,1011.86
2022-12-07T00:39:50.691Z,1011.83
2022-12-07T00:40:50.652Z,1011.83
2022-12-07T00:41:50.605Z,1011.80
2022-12-07T00:42:50.575Z,1011.79
2022-12-07T00:43:50.519Z,1011.76
2022-12-07T00:44:50.476Z,1011.78
2022-12-07T00:45:50.468Z,1011.73
2022-12-07T00:46:50.386Z,1011.70
2022-12-07T00:47:50.339Z,1011.74
2022-12-07T00:48:50.315Z,1011.73
2022-12-07T00:49:50.249Z,1011.69
2022-12-07T00:50:50.209Z,1011.69
2022-12-07T00:51:50.167Z,1011.66
2022-12-07T00:52:50.124Z,1011.68
2022-12-07T00:53:50.076Z,1011.68
2022-12-07T00:54:50.047Z,1011.68
2022-12-07T00:55:49.986Z,1011.66
2022-12-07T00:56:49.954Z,1011.67
2022-12-07T00:57:49.903Z,1011.69
2022-12-07T00:58:49.866Z,1011.67
2022-12-07T00:59:49.812Z,1011.66
2022-12-07T01:00:49.785Z,1011.70
2022-12-07T01:01:49.818Z,1011.68
2022-12-07T01:02:49.750Z,1011.67
2022-12-07T01:03:49.692Z,1011.99
2022-12-07T01:04:50.285Z,1011.67
2022-12-07T01:05:49.551Z,1011.64
2022-12-07T01:06:49.522Z,1011.63
2022-12-07T01:07:49.496Z,1011.62
2022-12-07T01:08:49.420Z,1011.62
2022-12-07T01:09:49.376Z,1011.97
2022-12-07T01:10:49.330Z,1011.65
2022-12-07T01:11:49.286Z,1011.63
2022-12-07T01:12:49.258Z,1011.62
2022-12-07T01:13:49.197Z,1011.59
2022-12-07T01:14:49.157Z,1011.63
2022-12-07T01:15:49.110Z,1011.59
2022-12-07T01:16:49.125Z,1011.61
2022-12-07T01:17:49.026Z,1011.97
2022-12-07T01:18:48.995Z,1011.67
2022-12-07T01:19:48.963Z,1011.73
2022-12-07T01:20:48.897Z,1012.00
2022-12-07T01:21:48.847Z,1012.06
2022-12-07T01:22:48.807Z,1012.02
2022-12-07T01:23:48.759Z,1011.99
2022-12-07T01:24:48.719Z,1012.01
2022-12-07T01:25:48.888Z,1011.66
2022-12-07T01:26:48.647Z,1011.63
2022-12-07T01:27:48.588Z,1011.68
2022-12-07T01:28:48.544Z,1011.55
2022-12-07T01:29:48.494Z,1011.62
2022-12-07T01:30:48.513Z,1011.60
2022-12-07T01:31:48.419Z,1011.92
2022-12-07T01:32:48.370Z,1011.65
2022-12-07T01:33:48.338Z,1011.94
2022-12-07T01:34:48.279Z,1011.97
2022-12-07T01:35:48.231Z,1011.68
2022-12-07T01:36:48.202Z,1011.94
2022-12-07T01:37:48.145Z,1011.60
2022-12-07T01:38:48.108Z,1011.57
2022-12-07T01:39:48.059Z,1011.94
2022-12-07T01:40:48.017Z,1011.95
2022-12-07T01:41:47.977Z,1011.93
2022-12-07T01:42:47.927Z,1011.94
2022-12-07T01:43:47.881Z,1011.64
2022-12-07T01:44:47.839Z,1011.95
2022-12-07T01:45:47.863Z,1011.94
2022-12-07T01:46:47.767Z,1011.96
2022-12-07T01:47:47.711Z,1011.65
2022-12-07T01:48:47.671Z,1011.98
2022-12-07T01:49:47.633Z,1011.62
2022-12-07T01:50:47.576Z,1011.59
2022-12-07T01:51:47.536Z,1011.58
2022-12-07T01:52:47.499Z,1011.92
2022-12-07T01:53:47.442Z,1011.61
2022-12-07T01:54:47.398Z,1011.58
2022-12-07T01:55:47.482Z,1011.56
2022-12-07T01:56:47.317Z,1011.87
2022-12-07T01:57:47.286Z,1011.53
2022-12-07T01:58:47.299Z,1011.53
2022-12-07T01:59:47.178Z,1011.51
2022-12-07T02:00:47.134Z,1011.55
2022-12-07T02:01:47.140Z,1011.55
2022-12-07T02:02:47.084Z,1011.54
2022-12-07T02:03:47.010Z,1011.54
2022-12-07T02:04:46.964Z,1011.53
2022-12-07T02:05:46.916Z,1011.86
2022-12-07T02:06:46.873Z,1011.87
2022-12-07T02:07:46.870Z,1011.81
2022-12-07T02:08:46.785Z,1011.83
2022-12-07T02:09:46.752Z,1011.46
2022-12-07T02:10:46.698Z,1011.46
2022-12-07T02:11:46.649Z,1011.61
2022-12-07T02:12:46.611Z,1011.79
2022-12-07T02:13:46.561Z,1011.82
2022-12-07T02:14:46.521Z,1011.75
2022-12-07T02:15:46.509Z,1011.47
2022-12-07T02:16:46.432Z,1011.79
2022-12-07T02:17:46.388Z,1011.40
2022-12-07T02:18:46.345Z,1011.75
2022-12-07T02:19:46.298Z,1011.42
2022-12-07T02:20:46.259Z,1011.78
2022-12-07T02:21:46.223Z,1011.40
2022-12-07T02:22:46.169Z,1011.37
2022-12-07T02:23:46.128Z,1011.36
2022-12-07T02:24:55.385Z,1011.69
2022-12-07T02:25:46.036Z,1011.39
2022-12-07T02:26:45.991Z,1011.41
2022-12-07T02:27:45.977Z,1011.40
2022-12-07T02:28:45.907Z,1011.40
2022-12-07T02:29:45.865Z,1011.40
2022-12-07T02:30:45.885Z,1011.46
2022-12-07T02:31:45.774Z,1011.41
2022-12-07T02:32:45.738Z,1011.46
2022-12-07T02:33:45.695Z,1011.49
2022-12-07T02:34:45.640Z,1011.48
2022-12-07T02:35:45.595Z,1011.52
2022-12-07T02:36:45.571Z,1011.52
2022-12-07T02:37:45.508Z,1011.50
2022-12-07T02:38:45.474Z,1011.53
2022-12-07T02:39:45.421Z,1011.54
2022-12-07T02:40:45.377Z,1011.58
2022-12-07T02:41:45.334Z,1011.51
2022-12-07T02:42:45.293Z,1011.61
2022-12-07T02:43:45.261Z,1011.85
2022-12-07T02:44:45.199Z,1011.57
2022-12-07T02:45:45.157Z,1011.56
2022-12-07T02:46:45.146Z,1011.52
2022-12-07T02:47:45.066Z,1011.54
2022-12-07T02:48:45.024Z,1011.51
2022-12-07T02:49:44.994Z,1011.72
2022-12-07T02:50:44.934Z,1011.50
2022-12-07T02:51:44.893Z,1011.65
2022-12-07T02:52:44.845Z,1011.50
2022-12-07T02:53:44.809Z,1011.84
2022-12-07T02:54:44.757Z,1011.81
2022-12-07T02:55:44.728Z,1011.45
2022-12-07T02:56:44.678Z,1011.47
2022-12-07T02:57:44.628Z,1011.48
2022-12-07T02:58:44.584Z,1011.84
2022-12-07T02:59:44.548Z,1011.53
2022-12-07T03:00:44.493Z,1011.73
2022-12-07T03:01:44.503Z,1011.80
2022-12-07T03:02:44.573Z,1011.62
2022-12-07T03:03:44.370Z,1011.83
2022-12-07T03:04:44.318Z,1011.77
2022-12-07T03:05:44.276Z,1011.69
2022-12-07T03:06:44.238Z,1011.50
2022-12-07T03:07:44.264Z,1011.83
2022-12-07T03:08:44.141Z,1011.80
2022-12-07T03:09:44.100Z,1011.46
2022-12-07T03:10:44.053Z,1011.79
2022-12-07T03:11:44.026Z,1011.63
2022-12-07T03:12:43.978Z,1011.40
2022-12-07T03:13:43.933Z,1011.44
2022-12-07T03:14:43.877Z,1011.46
2022-12-07T03:15:43.888Z,1011.46
2022-12-07T03:16:43.789Z,1011.45
2022-12-07T03:17:43.760Z,1011.48
2022-12-07T03:18:43.700Z,1011.81
2022-12-07T03:19:43.661Z,1011.51
2022-12-07T03:20:43.616Z,1011.47
2022-12-07T03:21:43.572Z,1011.49
2022-12-07T03:22:43.525Z,1011.43
2022-12-07T03:23:43.494Z,1011.47
2022-12-07T03:24:43.439Z,1011.47
2022-12-07T03:25:43.403Z,1011.46
2022-12-07T03:26:43.349Z,1011.48
2022-12-07T03:27:43.309Z,1011.80
2022-12-07T03:28:43.260Z,1011.45
2022-12-07T03:29:43.231Z,1011.79
2022-12-07T03:30:43.274Z,1011.47
2022-12-07T03:31:43.189Z,1011.45
2022-12-07T03:32:43.084Z,1011.44
2022-12-07T03:33:43.044Z,1011.49
2022-12-07T03:34:43.016Z,1011.45
2022-12-07T03:35:42.955Z,1011.46
2022-12-07T03:36:42.927Z,1011.49
2022-12-07T03:37:42.875Z,1011.44
2022-12-07T03:38:42.820Z,1011.43
2022-12-07T03:39:42.780Z,1011.44
2022-12-07T03:40:42.747Z,1011.40
2022-12-07T03:41:45.417Z,1011.44
2022-12-07T03:42:42.642Z,1011.41
2022-12-07T03:43:42.605Z,1011.39
2022-12-07T03:44:42.557Z,1011.40
2022-12-07T03:45:42.515Z,1011.45
2022-12-07T03:46:42.513Z,1011.47
2022-12-07T03:47:42.427Z,1011.45
2022-12-07T03:48:42.393Z,1011.42
2022-12-07T03:49:42.336Z,1011.47
2022-12-07T03:50:42.657Z,1011.43
2022-12-07T03:51:42.251Z,1011.41
2022-12-07T03:52:42.202Z,1011.42
2022-12-07T03:53:42.173Z,1011.43
2022-12-07T03:54:42.127Z,1011.43
2022-12-07T03:55:42.072Z,1011.46
2022-12-07T03:56:42.027Z,1011.75
2022-12-07T03:57:41.987Z,1011.75
2022-12-07T03:58:41.938Z,1011.74
2022-12-07T03:59:41.897Z,1011.68
2022-12-07T04:00:41.863Z,1011.73
2022-12-07T04:01:41.873Z,1011.41
2022-12-07T04:02:41.864Z,1011.41
2022-12-07T04:03:41.719Z,1011.69
2022-12-07T04:04:41.676Z,1011.54
2022-12-07T04:05:41.631Z,1011.42
2022-12-07T04:06:41.597Z,1011.73
2022-12-07T04:07:41.600Z,1011.76
2022-12-07T04:08:41.498Z,1011.76
2022-12-07T04:09:41.455Z,1011.76
2022-12-07T04:10:41.406Z,1011.75
2022-12-07T04:11:41.369Z,1011.75
2022-12-07T04:12:41.333Z,1011.43
2022-12-07T04:13:41.280Z,1011.43
2022-12-07T04:14:41.230Z,1011.71
2022-12-07T04:15:41.207Z,1011.43
2022-12-07T04:16:44.700Z,1011.44
2022-12-07T04:17:41.105Z,1011.73
2022-12-07T04:18:41.070Z,1011.45
2022-12-07T04:19:41.013Z,1011.43
2022-12-07T04:20:40.970Z,1011.43
2022-12-07T04:21:40.936Z,1011.44
2022-12-07T04:22:40.879Z,1011.43
2022-12-07T04:23:40.840Z,1011.44
2022-12-07T04:24:40.802Z,1011.43
2022-12-07T04:25:40.750Z,1011.55
2022-12-07T04:26:40.703Z,1011.43
2022-12-07T04:27:40.664Z,1011.43
2022-12-07T04:28:40.615Z,1011.39
2022-12-07T04:29:40.576Z,1011.37
2022-12-07T04:30:40.551Z,1011.37
2022-12-07T04:31:40.550Z,1011.31
2022-12-07T04:32:40.436Z,1011.36
2022-12-07T04:33:40.395Z,1011.30
2022-12-07T04:34:40.351Z,1011.35
2022-12-07T04:35:40.313Z,1011.34
2022-12-07T04:36:40.273Z,1011.32
2022-12-07T04:37:40.224Z,1011.31
2022-12-07T04:38:40.173Z,1011.31
2022-12-07T04:39:40.129Z,1011.26
2022-12-07T04:40:40.085Z,1011.34
2022-12-07T04:41:40.044Z,1011.30
2022-12-07T04:42:40.009Z,1011.65
2022-12-07T04:43:39.957Z,1011.40
2022-12-07T04:44:39.906Z,1011.43
2022-12-07T04:45:39.866Z,1011.63
2022-12-07T04:46:39.859Z,1011.32
2022-12-07T04:47:39.790Z,1011.60
2022-12-07T04:48:39.734Z,1011.33
2022-12-07T04:49:39.701Z,1011.30
2022-12-07T04:50:44.541Z,1011.30
2022-12-07T04:51:39.611Z,1011.23
2022-12-07T04:52:39.554Z,1011.56
2022-12-07T04:53:39.522Z,1011.22
2022-12-07T04:54:39.466Z,1011.21
2022-12-07T04:55:39.438Z,1011.54
2022-12-07T04:56:39.377Z,1011.48
2022-12-07T04:57:39.336Z,1011.12
2022-12-07T04:58:39.290Z,1011.17
2022-12-07T04:59:43.922Z,1011.18
2022-12-07T05:00:39.216Z,1011.55
2022-12-07T05:01:39.195Z,1011.27
2022-12-07T05:02:39.158Z,1011.60
2022-12-07T05:03:39.072Z,1011.42
2022-12-07T05:04:39.035Z,1011.59
2022-12-07T05:05:38.981Z,1011.58
2022-12-07T05:06:38.937Z,1011.26
2022-12-07T05:07:38.917Z,1011.33
2022-12-07T05:08:38.846Z,1011.28
2022-12-07T05:09:38.820Z,1011.26
2022-12-07T05:10:38.779Z,1011.59
2022-12-07T05:11:38.714Z,1011.25
2022-12-07T05:12:38.668Z,1011.59
2022-12-07T05:13:38.630Z,1011.27
2022-12-07T05:14:38.580Z,1011.51
2022-12-07T05:15:38.539Z,1011.27
2022-12-07T05:16:38.575Z,1011.22
2022-12-07T05:17:38.451Z,1011.59
2022-12-07T05:18:38.404Z,1011.56
2022-12-07T05:19:38.370Z,1011.41
2022-12-07T05:20:42.450Z,1011.58
2022-12-07T05:21:38.274Z,1011.38
2022-12-07T05:22:38.244Z,1011.39
2022-12-07T05:23:38.183Z,1011.52
2022-12-07T05:24:38.138Z,1011.38
2022-12-07T05:25:38.099Z,1011.37
2022-12-07T05:26:38.049Z,1011.35
2022-12-07T05:27:38.008Z,1011.37
2022-12-07T05:28:38.454Z,1011.75
2022-12-07T05:29:37.930Z,1011.60
2022-12-07T05:30:37.873Z,1011.36
2022-12-07T05:31:37.859Z,1011.35
2022-12-07T05:32:37.784Z,1011.37
2022-12-07T05:33:37.745Z,1011.66
2022-12-07T05:34:37.719Z,1011.32
2022-12-07T05:35:37.652Z,1011.31
2022-12-07T05:36:37.606Z,1011.52
2022-12-07T05:37:37.570Z,1011.57
2022-12-07T05:38:37.516Z,1011.61
2022-12-07T05:39:37.475Z,1011.60
2022-12-07T05:40:37.443Z,1011.63
2022-12-07T05:41:37.387Z,1011.27
2022-12-07T05:42:37.341Z,1011.56
2022-12-07T05:43:37.298Z,1011.31
2022-12-07T05:44:37.254Z,1011.56
2022-12-07T05:45:37.295Z,1011.64
2022-12-07T05:46:37.176Z,1011.30
2022-12-07T05:47:37.123Z,1011.23
2022-12-07T05:48:37.076Z,1011.21
2022-12-07T05:49:37.036Z,1011.59
2022-12-07T05:50:36.986Z,1011.46
2022-12-07T05:51:36.959Z,1011.29
2022-12-07T05:52:36.904Z,1011.25
2022-12-07T05:53:36.860Z,1011.23
2022-12-07T05:54:36.809Z,1011.25
2022-12-07T05:55:36.768Z,1011.27
2022-12-07T05:56:36.723Z,1011.22
2022-12-07T05:57:36.699Z,1011.23
2022-12-07T05:58:36.640Z,1011.26
2022-12-07T05:59:36.593Z,1011.24
2022-12-07T06:00:36.545Z,1011.25
2022-12-07T06:01:36.504Z,1011.24
2022-12-07T06:02:36.570Z,1011.24
2022-12-07T06:03:36.473Z,1011.23
2022-12-07T06:04:36.369Z,1011.26
2022-12-07T06:05:36.328Z,1011.24
2022-12-07T06:06:36.345Z,1011.23
2022-12-07T06:07:36.277Z,1011.20
2022-12-07T06:08:36.193Z,1011.55
2022-12-07T06:09:36.164Z,1011.40
2022-12-07T06:10:36.108Z,1011.22
2022-12-07T06:11:36.066Z,1011.55
2022-12-07T06:12:36.018Z,1011.19
2022-12-07T06:13:35.977Z,1011.20
2022-12-07T06:14:36.064Z,1011.23
2022-12-07T06:15:35.891Z,1011.21
2022-12-07T06:16:35.898Z,1011.25
2022-12-07T06:17:35.803Z,1011.46
2022-12-07T06:18:35.751Z,1011.55
2022-12-07T06:19:35.716Z,1011.26
2022-12-07T06:20:35.674Z,1011.24
2022-12-07T06:21:35.623Z,1011.25
2022-12-07T06:22:35.576Z,1011.26
2022-12-07T06:23:35.547Z,1011.26
2022-12-07T06:24:35.487Z,1011.29
2022-12-07T06:25:35.453Z,1011.26
2022-12-07T06:26:35.413Z,1011.26
2022-12-07T06:27:35.358Z,1011.28
2022-12-07T06:28:35.317Z,1011.64
2022-12-07T06:29:35.268Z,1011.29
2022-12-07T06:30:35.225Z,1011.31
2022-12-07T06:31:35.283Z,1011.62
2022-12-07T06:32:35.147Z,1011.30
2022-12-07T06:33:35.094Z,1011.35
2022-12-07T06:34:35.051Z,1011.31
2022-12-07T06:35:35.004Z,1011.32
2022-12-07T06:36:34.970Z,1011.33
2022-12-07T06:37:34.920Z,1011.28
2022-12-07T06:38:34.885Z,1011.30
2022-12-07T06:39:34.844Z,1011.27
2022-12-07T06:40:34.801Z,1011.29
2022-12-07T06:41:34.736Z,1011.63
2022-12-07T06:42:34.695Z,1011.29
2022-12-07T06:43:34.647Z,1011.63
2022-12-07T06:44:34.731Z,1011.36
2022-12-07T06:45:34.662Z,1011.42
2022-12-07T06:46:34.531Z,1011.40
2022-12-07T06:47:42.414Z,1011.30
2022-12-07T06:48:34.442Z,1011.34
2022-12-07T06:49:34.382Z,1011.30
2022-12-07T06:50:34.342Z,1011.39
2022-12-07T06:51:34.295Z,1011.34
2022-12-07T06:52:34.255Z,1011.57
2022-12-07T06:53:34.219Z,1011.31
2022-12-07T06:54:34.165Z,1011.68
2022-12-07T06:55:34.119Z,1011.33
2022-12-07T06:56:34.076Z,1011.34
2022-12-07T06:57:34.032Z,1011.71
2022-12-07T06:58:33.986Z,1011.71
2022-12-07T06:59:33.956Z,1011.72
2022-12-07T07:00:33.901Z,1011.39
2022-12-07T07:01:33.905Z,1011.38
2022-12-07T07:02:33.904Z,1011.39
2022-12-07T07:03:33.761Z,1011.35
2022-12-07T07:04:33.720Z,1011.36
2022-12-07T07:05:33.686Z,1011.34
2022-12-07T07:06:33.634Z,1011.34
2022-12-07T07:07:51.746Z,1011.37
2022-12-07T07:08:33.574Z,1011.60
2022-12-07T07:09:33.498Z,1011.68
2022-12-07T07:10:33.457Z,1011.72
2022-12-07T07:11:33.420Z,1011.72
2022-12-07T07:12:33.369Z,1011.69
2022-12-07T07:13:33.326Z,1011.35
2022-12-07T07:14:33.279Z,1011.35
2022-12-07T07:15:33.231Z,1011.37
2022-12-07T07:16:33.272Z,1011.35
2022-12-07T07:17:33.158Z,1011.36
2022-12-07T07:18:33.149Z,1011.32
2022-12-07T07:19:33.056Z,1011.35
2022-12-07T07:20:33.013Z,1011.71
2022-12-07T07:21:32.970Z,1011.42
2022-12-07T07:22:32.939Z,1011.70
2022-12-07T07:23:32.876Z,1011.70
2022-12-07T07:24:32.854Z,1011.74
2022-12-07T07:25:32.793Z,1011.74
2022-12-07T07:26:32.748Z,1011.42
2022-12-07T07:27:32.700Z,1011.40
2022-12-07T07:28:32.678Z,1011.38
2022-12-07T07:29:32.611Z,1011.40
2022-12-07T07:30:32.618Z,1011.39
2022-12-07T07:31:32.529Z,1011.37
2022-12-07T07:32:32.479Z,1011.32
2022-12-07T07:33:32.443Z,1011.31
2022-12-07T07:34:32.391Z,1011.36
2022-12-07T07:35:32.347Z,1011.38
2022-12-07T07:36:32.303Z,1011.40
2022-12-07T07:37:32.257Z,1011.80
2022-12-07T07:38:32.216Z,1011.52
2022-12-07T07:39:32.181Z,1011.55
2022-12-07T07:40:32.131Z,1011.47
2022-12-07T07:41:32.079Z,1011.45
2022-12-07T07:42:32.039Z,1011.45
2022-12-07T07:43:32.117Z,1011.47
2022-12-07T07:44:35.365Z,1011.47
2022-12-07T07:45:31.913Z,1011.49
2022-12-07T07:46:31.959Z,1011.52
2022-12-07T07:47:31.816Z,1011.49
2022-12-07T07:48:31.772Z,1011.50
2022-12-07T07:49:31.728Z,1011.47
2022-12-07T07:50:31.677Z,1011.47
2022-12-07T07:51:31.651Z,1011.81
2022-12-07T07:52:31.595Z,1011.49
2022-12-07T07:53:31.559Z,1011.81
2022-12-07T07:54:31.508Z,1011.71
2022-12-07T07:55:31.482Z,1011.87
2022-12-07T07:56:31.423Z,1011.47
2022-12-07T07:57:31.380Z,1011.48
2022-12-07T07:58:31.350Z,1011.51
2022-12-07T07:59:31.290Z,1011.51
2022-12-07T08:00:31.237Z,1011.51
2022-12-07T08:01:31.219Z,1011.55
2022-12-07T08:02:31.169Z,1011.51
2022-12-07T08:03:31.109Z,1011.56
2022-12-07T08:04:31.106Z,1011.56
2022-12-07T08:05:31.013Z,1011.59
2022-12-07T08:06:32.568Z,1011.55
2022-12-07T08:07:30.929Z,1011.94
2022-12-07T08:08:30.988Z,1011.95
2022-12-07T08:09:30.839Z,1011.71
2022-12-07T08:10:30.803Z,1011.64
2022-12-07T08:11:30.748Z,1011.64
2022-12-07T08:12:30.702Z,1011.99
2022-12-07T08:13:31.648Z,1011.69
2022-12-07T08:14:30.616Z,1012.00
2022-12-07T08:15:30.662Z,1012.02
2022-12-07T08:16:30.635Z,1011.70
2022-12-07T08:17:30.492Z,1011.65
2022-12-07T08:18:30.446Z,1011.70
2022-12-07T08:19:30.397Z,1011.81
2022-12-07T08:20:30.349Z,1012.08
2022-12-07T08:21:30.306Z,1011.73
2022-12-07T08:22:30.271Z,1012.07
2022-12-07T08:23:37.645Z,1012.06
2022-12-07T08:24:30.185Z,1011.75
2022-12-07T08:25:39.506Z,1012.07
2022-12-07T08:26:30.083Z,1012.10
2022-12-07T08:27:30.042Z,1012.11
2022-12-07T08:28:30.013Z,1011.78
2022-12-07T08:29:29.965Z,1011.77
2022-12-07T08:30:29.915Z,1011.74
2022-12-07T08:31:29.894Z,1012.10
2022-12-07T08:32:29.835Z,1011.82
2022-12-07T08:33:29.774Z,1011.81
2022-12-07T08:34:29.739Z,1011.83
2022-12-07T08:35:29.688Z,1011.81
2022-12-07T08:36:29.646Z,1012.11
2022-12-07T08:37:29.596Z,1012.11
2022-12-07T08:38:31.936Z,1011.75
2022-12-07T08:39:32.068Z,1011.76
2022-12-07T08:40:29.477Z,1011.79
2022-12-07T08:41:29.426Z,1011.71
2022-12-07T08:42:29.386Z,1011.77
2022-12-07T08:43:29.329Z,1011.74
2022-12-07T08:44:29.294Z,1011.73
2022-12-07T08:45:29.252Z,1011.72
2022-12-07T08:46:29.259Z,1011.72
2022-12-07T08:47:29.237Z,1011.73
2022-12-07T08:48:29.114Z,1012.06
2022-12-07T08:49:29.121Z,1011.75
2022-12-07T08:50:29.027Z,1011.73
2022-12-07T08:51:28.978Z,1011.75
2022-12-07T08:52:28.947Z,1011.75
2022-12-07T08:53:28.901Z,1011.72
2022-12-07T08:54:28.853Z,1011.69
2022-12-07T08:55:28.809Z,1011.73
2022-12-07T08:56:28.757Z,1011.75
2022-12-07T08:57:28.732Z,1011.79
2022-12-07T08:58:28.683Z,1012.09
2022-12-07T08:59:29.552Z,1012.13
2022-12-07T09:00:28.585Z,1011.76
2022-12-07T09:01:28.761Z,1012.11
2022-12-07T09:03:51.397Z,1011.74
2022-12-07T09:04:49.443Z,1012.09
2022-12-07T09:05:28.426Z,1011.70
2022-12-07T09:06:28.481Z,1011.72
2022-12-07T09:07:28.279Z,1011.67
2022-12-07T09:08:28.298Z,1011.68
2022-12-07T09:09:28.188Z,1011.66
2022-12-07T09:10:28.161Z,1011.98
2022-12-07T09:11:28.955Z,1011.76
2022-12-07T09:12:28.086Z,1012.02
2022-12-07T09:13:28.021Z,1011.99
2022-12-07T09:14:27.976Z,1011.63
2022-12-07T09:15:27.929Z,1011.67
2022-12-07T09:16:27.918Z,1011.78
2022-12-07T09:17:27.846Z,1011.76
2022-12-07T09:18:27.816Z,1011.78
2022-12-07T09:19:27.754Z,1012.02
2022-12-07T09:20:28.388Z,1012.15
2022-12-07T09:21:27.673Z,1011.85
2022-12-07T09:22:27.628Z,1011.83
2022-12-07T09:23:27.582Z,1011.88
2022-12-07T09:24:27.553Z,1012.17
2022-12-07T09:25:27.494Z,1012.22
2022-12-07T09:26:27.455Z,1011.82
2022-12-07T09:27:27.420Z,1012.19
2022-12-07T09:28:27.372Z,1012.17
2022-12-07T09:29:27.328Z,1011.79
2022-12-07T09:30:27.309Z,1011.85
2022-12-07T09:31:27.475Z,1012.14
2022-12-07T09:32:27.304Z,1012.10
2022-12-07T09:33:27.162Z,1012.15
2022-12-07T09:34:27.139Z,1011.80
2022-12-07T09:35:27.084Z,1012.19
2022-12-07T09:36:27.049Z,1012.19
2022-12-07T09:37:27.050Z,1011.86
2022-12-07T09:38:26.965Z,1012.21
2022-12-07T09:39:26.944Z,1011.91
2022-12-07T09:40:26.890Z,1011.89
2022-12-07T09:41:26.848Z,1012.23
2022-12-07T09:42:26.891Z,1011.86
2022-12-07T09:43:26.750Z,1011.84
2022-12-07T09:44:26.714Z,1011.85
2022-12-07T09:45:26.670Z,1012.16
2022-12-07T09:46:26.702Z,1011.96
2022-12-07T09:47:26.587Z,1012.20
2022-12-07T09:48:26.550Z,1012.08
2022-12-07T09:49:26.511Z,1012.17
2022-12-07T09:50:26.471Z,1012.07
2022-12-07T09:51:26.429Z,1011.83
2022-12-07T09:52:26.404Z,1012.10
2022-12-07T09:53:26.345Z,1012.15
2022-12-07T09:54:26.302Z,1012.11
2022-12-07T09:55:26.260Z,1012.16
2022-12-07T09:56:26.222Z,1011.85
2022-12-07T09:57:26.183Z,1012.13
2022-12-07T09:58:26.152Z,1011.75
2022-12-07T09:59:26.098Z,1011.75
2022-12-07T10:00:26.056Z,1012.10
2022-12-07T10:01:26.052Z,1011.74
2022-12-07T10:02:25.976Z,1011.75
2022-12-07T10:03:25.931Z,1011.86
2022-12-07T10:04:25.931Z,1011.78
2022-12-07T10:05:25.925Z,1011.74
2022-12-07T10:06:25.951Z,1011.71
2022-12-07T10:07:25.769Z,1011.73
2022-12-07T10:08:25.769Z,1012.00
2022-12-07T10:09:25.694Z,1012.04
2022-12-07T10:10:25.649Z,1011.71
2022-12-07T10:11:25.597Z,1011.63
2022-12-07T10:12:25.569Z,1011.64
2022-12-07T10:13:25.519Z,1011.64
2022-12-07T10:14:44.275Z,1011.94
2022-12-07T10:15:25.552Z,1011.97
2022-12-07T10:16:25.474Z,1011.93
2022-12-07T10:17:25.345Z,1011.67
2022-12-07T10:18:25.310Z,1011.59
2022-12-07T10:19:25.262Z,1011.62
2022-12-07T10:20:25.222Z,1011.94
2022-12-07T10:21:25.206Z,1011.60
2022-12-07T10:22:30.369Z,1011.86
2022-12-07T10:23:25.096Z,1011.56
2022-12-07T10:24:25.061Z,1011.55
2022-12-07T10:25:25.015Z,1011.58
2022-12-07T10:26:24.969Z,1011.56
2022-12-07T10:27:24.927Z,1011.94
2022-12-07T10:28:24.898Z,1011.85
2022-12-07T10:29:24.846Z,1011.50
2022-12-07T10:30:24.805Z,1011.52
2022-12-07T10:31:24.870Z,1011.83
2022-12-07T10:32:24.719Z,1011.51
2022-12-07T10:33:24.681Z,1011.79
2022-12-07T10:34:24.655Z,1011.83
2022-12-07T10:35:24.597Z,1011.46
2022-12-07T10:36:24.558Z,1011.42
2022-12-07T10:37:24.525Z,1011.44
2022-12-07T10:38:24.491Z,1011.41
2022-12-07T10:39:24.432Z,1011.40
2022-12-07T10:40:24.387Z,1011.40
2022-12-07T10:41:24.341Z,1011.46
2022-12-07T10:42:24.323Z,1011.58
2022-12-07T10:43:24.248Z,1011.79
2022-12-07T10:44:24.223Z,1011.44
2022-12-07T10:45:24.259Z,1011.46
2022-12-07T10:46:24.289Z,1011.75
2022-12-07T10:47:24.150Z,1011.56
2022-12-07T10:48:24.058Z,1011.72
2022-12-07T10:49:24.002Z,1011.70
2022-12-07T10:50:23.956Z,1011.61
2022-12-07T10:51:23.939Z,1011.32
2022-12-07T10:52:23.868Z,1011.35
2022-12-07T10:53:23.830Z,1011.34
2022-12-07T10:54:23.784Z,1011.36
2022-12-07T10:55:23.763Z,1011.31
2022-12-07T10:56:23.703Z,1011.30
2022-12-07T10:57:23.683Z,1011.26
2022-12-07T10:58:23.617Z,1011.56
2022-12-07T10:59:23.587Z,1011.61
2022-12-07T11:00:23.541Z,1011.58
2022-12-07T11:01:23.555Z,1011.56
2022-12-07T11:02:23.518Z,1011.20
2022-12-07T11:03:23.414Z,1011.15
2022-12-07T11:04:23.380Z,1011.13
2022-12-07T11:05:23.322Z,1011.48
2022-12-07T11:06:23.276Z,1011.48
2022-12-07T11:07:23.236Z,1011.48
2022-12-07T11:08:23.346Z,1011.14
2022-12-07T11:09:44.990Z,1011.12
2022-12-07T11:10:23.465Z,1011.09
2022-12-07T11:11:23.074Z,1011.09
2022-12-07T11:12:23.028Z,1011.12
2022-12-07T11:13:28.074Z,1011.41
2022-12-07T11:14:22.941Z,1011.11
2022-12-07T11:15:22.902Z,1011.06
2022-12-07T11:16:22.959Z,1011.09
2022-12-07T11:17:22.817Z,1011.05
2022-12-07T11:18:22.782Z,1011.05
2022-12-07T11:19:26.673Z,1011.16
2022-12-07T11:20:22.704Z,1011.05
2022-12-07T11:21:22.658Z,1011.07
2022-12-07T11:22:22.605Z,1011.40
2022-12-07T11:23:22.573Z,1011.07
2022-12-07T11:24:22.538Z,1011.35
2022-12-07T11:25:27.246Z,1010.98
2022-12-07T11:26:22.431Z,1011.05
2022-12-07T11:27:22.391Z,1011.03
2022-12-07T11:28:22.357Z,1010.98
2022-12-07T11:29:22.357Z,1010.97
2022-12-07T11:30:22.280Z,1011.00
2022-12-07T11:31:25.868Z,1010.98
2022-12-07T11:32:22.182Z,1011.01
2022-12-07T11:33:22.146Z,1010.97
2022-12-07T11:34:22.129Z,1010.97
2022-12-07T11:35:22.065Z,1011.04
2022-12-07T11:36:22.035Z,1011.00
2022-12-07T11:37:21.981Z,1011.13
2022-12-07T11:38:24.661Z,1011.00
2022-12-07T11:39:21.898Z,1010.96
2022-12-07T11:40:21.851Z,1010.90
2022-12-07T11:41:21.836Z,1011.32
2022-12-07T11:42:21.782Z,1010.95
2022-12-07T11:43:21.730Z,1010.93
2022-12-07T11:44:27.208Z,1010.96
2022-12-07T11:45:21.645Z,1010.79
2022-12-07T11:46:21.656Z,1011.31
2022-12-07T11:47:21.572Z,1011.28
2022-12-07T11:48:21.523Z,1011.28
2022-12-07T11:49:21.487Z,1010.92
2022-12-07T11:50:22.000Z,1010.90
2022-12-07T11:51:21.405Z,1010.81
2022-12-07T11:52:21.375Z,1010.82
2022-12-07T11:53:21.325Z,1010.81
2022-12-07T11:54:21.279Z,1011.12
2022-12-07T11:55:21.247Z,1010.78
2022-12-07T11:56:21.197Z,1011.05
2022-12-07T11:57:21.156Z,1010.71
2022-12-07T11:58:21.127Z,1010.64
2022-12-07T11:59:21.077Z,1010.68
2022-12-07T12:00:21.056Z,1010.69
2022-12-07T12:01:21.007Z,1010.65
2022-12-07T12:02:20.976Z,1010.86
2022-12-07T12:03:20.958Z,1010.61
2022-12-07T12:04:20.884Z,1010.69
2022-12-07T12:05:20.834Z,1010.65
2022-12-07T12:06:20.805Z,1010.59